createdAt,value
2022-08-03T00:01:49.082Z,3.17
2022-08-03T00:04:15.597Z,3.20
2022-08-03T00:06:42.094Z,2.90
2022-08-03T00:09:08.746Z,3.57
2022-08-03T00:11:35.800Z,3.60
2022-08-03T00:14:03.468Z,3.03
2022-08-03T00:16:29.967Z,3.10
2022-08-03T00:18:56.556Z,2.90
2022-08-03T00:21:23.318Z,3.10
2022-08-03T00:23:51.921Z,3.13
2022-08-03T00:26:19.729Z,2.87
2022-08-03T00:28:46.200Z,3.20
2022-08-03T00:31:13.443Z,3.20
2022-08-03T00:33:58.320Z,3.27
2022-08-03T00:36:27.236Z,3.10
2022-08-03T00:38:53.753Z,3.40
2022-08-03T00:41:20.349Z,3.30
2022-08-03T00:43:47.808Z,3.40
2022-08-03T00:46:17.717Z,3.20
2022-08-03T00:48:50.567Z,3.10
2022-08-03T00:51:17.270Z,3.50
2022-08-03T00:53:43.810Z,3.30
2022-08-03T00:56:14.004Z,3.73
2022-08-03T00:58:40.553Z,3.43
2022-08-03T01:01:07.260Z,3.17
2022-08-03T01:03:34.482Z,3.40
2022-08-03T01:06:17.177Z,3.00
2022-08-03T01:09:22.469Z,3.50
2022-08-03T01:12:23.000Z,3.37
2022-08-03T01:14:57.847Z,3.50
2022-08-03T01:17:26.525Z,3.10
2022-08-03T01:20:04.069Z,3.40
2022-08-03T01:23:08.889Z,3.73
2022-08-03T01:26:03.940Z,3.50
2022-08-03T01:28:59.879Z,3.27
2022-08-03T01:31:29.822Z,3.40
2022-08-03T01:34:00.597Z,3.50
2022-08-03T01:36:33.363Z,3.37
2022-08-03T01:39:02.135Z,4.10
2022-08-03T01:41:38.134Z,3.80
2022-08-03T01:44:29.139Z,3.50
2022-08-03T01:46:53.469Z,3.70
2022-08-03T01:49:20.075Z,3.70
2022-08-03T01:51:57.941Z,3.73
2022-08-03T01:54:34.145Z,3.33
2022-08-03T01:57:00.632Z,3.30
2022-08-03T01:59:29.155Z,4.13
2022-08-03T02:02:28.487Z,3.20
2022-08-03T02:04:43.945Z,3.57
2022-08-03T02:07:11.122Z,3.60
2022-08-03T02:09:39.409Z,3.67
2022-08-03T02:12:10.412Z,3.33
2022-08-03T02:14:37.552Z,3.80
2022-08-03T02:17:05.520Z,4.20
2022-08-03T02:19:35.766Z,3.57
2022-08-03T02:22:03.524Z,3.83
2022-08-03T02:24:31.328Z,4.00
2022-08-03T02:26:59.049Z,4.10
2022-08-03T02:29:40.264Z,3.97
2022-08-03T02:32:10.811Z,3.97
2022-08-03T02:34:38.080Z,4.50
2022-08-03T02:37:04.989Z,4.10
2022-08-03T02:39:33.403Z,4.87
2022-08-03T02:42:03.480Z,4.60
2022-08-03T02:44:34.777Z,5.30
2022-08-03T02:47:04.309Z,4.87
2022-08-03T02:49:49.561Z,4.73
2022-08-03T02:52:18.956Z,5.43
2022-08-03T02:54:46.424Z,5.70
2022-08-03T02:57:13.816Z,5.23
2022-08-03T02:59:41.071Z,5.20
2022-08-03T03:02:07.977Z,5.60
2022-08-03T03:04:35.468Z,5.40
2022-08-03T03:07:04.358Z,5.90
2022-08-03T03:09:40.512Z,5.90
2022-08-03T03:12:11.156Z,5.93
2022-08-03T03:14:38.289Z,5.60
2022-08-03T03:17:06.866Z,6.03
2022-08-03T03:19:34.377Z,5.90
2022-08-03T03:22:01.997Z,6.00
2022-08-03T03:24:29.797Z,5.80
2022-08-03T03:26:57.176Z,5.80
2022-08-03T03:29:23.962Z,5.90
2022-08-03T03:31:50.883Z,5.90
2022-08-03T03:34:18.503Z,5.87
2022-08-03T03:36:45.041Z,6.17
2022-08-03T03:39:14.225Z,6.40
2022-08-03T03:41:42.848Z,5.77
2022-08-03T03:44:09.440Z,5.53
2022-08-03T03:46:36.130Z,6.07
2022-08-03T03:49:02.722Z,5.60
2022-08-03T03:51:29.316Z,6.20
2022-08-03T03:53:57.346Z,6.03
2022-08-03T03:56:24.106Z,5.87
2022-08-03T03:58:50.953Z,6.07
2022-08-03T04:01:17.675Z,5.77
2022-08-03T04:03:44.419Z,6.60
2022-08-03T04:06:30.524Z,6.30
2022-08-03T04:09:15.482Z,5.60
2022-08-03T04:11:53.629Z,5.97
2022-08-03T04:14:24.902Z,6.20
2022-08-03T04:16:56.030Z,5.87
2022-08-03T04:19:36.384Z,5.37
2022-08-03T04:22:06.897Z,5.93
2022-08-03T04:24:35.581Z,5.57
2022-08-03T04:27:05.305Z,5.70
2022-08-03T04:29:33.975Z,5.50
2022-08-03T04:32:01.117Z,5.90
2022-08-03T04:34:28.901Z,5.73
2022-08-03T04:36:59.445Z,5.70
2022-08-03T04:39:28.226Z,5.43
2022-08-03T04:42:07.077Z,5.37
2022-08-03T04:44:42.102Z,5.50
2022-08-03T04:47:08.679Z,5.70
2022-08-03T04:49:37.622Z,6.17
2022-08-03T04:52:05.670Z,5.40
2022-08-03T04:54:39.710Z,5.80
2022-08-03T04:57:06.196Z,5.53
2022-08-03T04:59:33.175Z,5.77
2022-08-03T05:02:05.752Z,5.40
2022-08-03T05:04:32.269Z,5.87
2022-08-03T05:06:58.770Z,6.10
2022-08-03T05:09:50.129Z,5.90
2022-08-03T05:12:19.111Z,6.67
2022-08-03T05:14:45.606Z,6.03
2022-08-03T05:17:12.079Z,6.53
2022-08-03T05:19:38.573Z,5.47
2022-08-03T05:22:05.075Z,5.77
2022-08-03T05:24:31.583Z,5.63
2022-08-03T05:26:58.112Z,6.03
2022-08-03T05:29:24.599Z,6.00
2022-08-03T05:31:51.067Z,5.57
2022-08-03T05:34:17.557Z,6.50
2022-08-03T05:36:44.054Z,6.07
2022-08-03T05:39:10.546Z,5.57
2022-08-03T05:41:37.676Z,5.13
2022-08-03T05:44:04.848Z,5.70
2022-08-03T05:46:31.640Z,5.33
2022-08-03T05:48:58.247Z,5.63
2022-08-03T05:51:24.762Z,4.50
2022-08-03T05:53:51.283Z,5.60
2022-08-03T05:56:17.788Z,5.00
2022-08-03T05:58:46.008Z,5.50
2022-08-03T06:01:12.708Z,5.20
2022-08-03T06:03:39.312Z,4.70
2022-08-03T06:06:05.884Z,5.33
2022-08-03T06:08:32.383Z,4.93
2022-08-03T06:10:58.864Z,4.60
2022-08-03T06:13:25.354Z,4.60
2022-08-03T06:15:52.451Z,4.30
2022-08-03T06:18:19.086Z,4.20
2022-08-03T06:20:45.575Z,4.10
2022-08-03T06:23:17.763Z,4.30
2022-08-03T06:25:44.807Z,4.03
2022-08-03T06:28:35.432Z,3.80
2022-08-03T06:31:00.947Z,3.93
2022-08-03T06:34:31.218Z,4.20
2022-08-03T06:36:14.217Z,3.80
2022-08-03T06:38:40.699Z,3.50
2022-08-03T06:41:07.256Z,4.23
2022-08-03T06:43:37.791Z,3.90
2022-08-03T06:46:05.570Z,3.70
2022-08-03T06:48:32.547Z,3.23
2022-08-03T06:50:59.235Z,3.77
2022-08-03T06:53:25.782Z,3.43
2022-08-03T06:55:54.920Z,3.37
2022-08-03T06:58:22.012Z,3.33
2022-08-03T07:00:48.506Z,3.60
2022-08-03T07:03:15.182Z,3.47
2022-08-03T07:05:42.903Z,3.70
2022-08-03T07:08:10.126Z,3.47
2022-08-03T07:10:37.096Z,3.23
2022-08-03T07:13:04.042Z,2.90
2022-08-03T07:15:38.356Z,3.13
2022-08-03T07:18:17.563Z,3.10
2022-08-03T07:20:55.764Z,2.83
2022-08-03T07:23:22.230Z,2.67
2022-08-03T07:25:48.724Z,2.63
2022-08-03T07:28:15.227Z,2.93
2022-08-03T07:30:41.759Z,2.53
2022-08-03T07:33:08.241Z,2.70
2022-08-03T07:35:34.909Z,2.60
2022-08-03T07:38:01.528Z,2.57
2022-08-03T07:40:31.654Z,2.83
2022-08-03T07:42:58.913Z,2.50
2022-08-03T07:45:26.613Z,2.50
2022-08-03T07:47:54.117Z,2.27
2022-08-03T07:50:21.770Z,2.60
2022-08-03T07:52:48.546Z,2.30
2022-08-03T07:55:16.436Z,2.47
2022-08-03T07:57:42.950Z,2.47
2022-08-03T08:00:16.297Z,3.00
2022-08-03T08:02:43.428Z,2.57
2022-08-03T08:05:11.022Z,2.80
2022-08-03T08:07:38.542Z,3.03
2022-08-03T08:10:06.781Z,2.70
2022-08-03T08:12:33.539Z,2.60
2022-08-03T08:15:00.095Z,2.97
2022-08-03T08:17:26.866Z,2.60
2022-08-03T08:19:53.744Z,2.63
2022-08-03T08:22:29.773Z,2.47
2022-08-03T08:24:57.521Z,2.50
2022-08-03T08:27:24.006Z,2.57
2022-08-03T08:29:54.591Z,2.70
2022-08-03T08:32:21.876Z,2.53
2022-08-03T08:34:48.336Z,2.63
2022-08-03T08:37:15.055Z,2.20
2022-08-03T08:39:41.539Z,2.20
2022-08-03T08:42:08.053Z,2.60
2022-08-03T08:44:35.601Z,2.60
2022-08-03T08:47:02.889Z,2.40
2022-08-03T08:49:30.152Z,2.60
2022-08-03T08:52:01.053Z,2.37
2022-08-03T08:54:28.774Z,2.40
2022-08-03T08:56:56.162Z,2.47
2022-08-03T08:59:22.974Z,2.50
2022-08-03T09:01:49.536Z,2.80
2022-08-03T09:04:16.257Z,3.03
2022-08-03T09:06:53.715Z,2.77
2022-08-03T09:10:08.298Z,2.30
2022-08-03T09:12:39.089Z,2.50
2022-08-03T09:15:22.032Z,2.57
2022-08-03T09:17:51.096Z,2.20
2022-08-03T09:20:18.841Z,2.10
2022-08-03T09:22:55.428Z,2.80
2022-08-03T09:25:36.206Z,2.33
2022-08-03T09:28:08.549Z,2.80
2022-08-03T09:30:36.177Z,2.63
2022-08-03T09:33:08.755Z,3.10
2022-08-03T09:35:54.795Z,2.50
2022-08-03T09:38:26.287Z,2.60
2022-08-03T09:40:57.473Z,2.47
2022-08-03T09:43:27.743Z,2.80
2022-08-03T09:46:03.744Z,2.20
2022-08-03T09:48:31.208Z,2.57
2022-08-03T09:51:14.079Z,2.70
2022-08-03T09:53:57.182Z,2.30
2022-08-03T09:56:47.319Z,2.73
2022-08-03T09:59:23.600Z,2.30
2022-08-03T10:01:50.065Z,2.60
2022-08-03T10:04:19.604Z,2.23
2022-08-03T10:07:02.558Z,2.17
2022-08-03T10:09:29.082Z,2.47
2022-08-03T10:11:55.628Z,2.40
2022-08-03T10:14:23.805Z,2.03
2022-08-03T10:16:50.414Z,2.10
2022-08-03T10:19:17.415Z,2.60
2022-08-03T10:21:50.909Z,2.40
2022-08-03T10:24:24.534Z,2.60
2022-08-03T10:26:51.746Z,2.00
2022-08-03T10:29:22.592Z,2.40
2022-08-03T10:31:57.391Z,2.47
2022-08-03T10:34:27.058Z,2.50
2022-08-03T10:36:57.224Z,2.53
2022-08-03T10:39:29.003Z,2.40
2022-08-03T10:41:57.626Z,2.80
2022-08-03T10:44:26.504Z,2.60
2022-08-03T10:46:53.189Z,3.20
2022-08-03T10:49:33.992Z,2.20
2022-08-03T10:52:02.725Z,2.20
2022-08-03T10:55:07.724Z,2.60
2022-08-03T10:57:58.755Z,2.87
2022-08-03T11:00:27.489Z,2.50
2022-08-03T11:03:04.630Z,2.43
2022-08-03T11:05:33.161Z,2.03
2022-08-03T11:08:19.536Z,2.20
2022-08-03T11:10:46.514Z,2.10
2022-08-03T11:13:18.825Z,2.30
2022-08-03T11:15:47.094Z,2.57
2022-08-03T11:18:14.183Z,2.23
2022-08-03T11:20:49.126Z,2.37
2022-08-03T11:23:17.019Z,2.10
2022-08-03T11:26:09.711Z,2.33
2022-08-03T11:28:36.745Z,2.53
2022-08-03T11:31:48.133Z,2.40
2022-08-03T11:34:11.577Z,2.30
2022-08-03T11:37:15.643Z,2.50
2022-08-03T11:39:46.459Z,2.43
2022-08-03T11:42:22.009Z,3.07
2022-08-03T11:44:50.012Z,2.90
2022-08-03T11:47:18.102Z,3.50
2022-08-03T11:49:47.047Z,2.70
2022-08-03T11:52:14.073Z,3.70
2022-08-03T11:54:41.054Z,2.67
2022-08-03T11:57:07.672Z,2.80
2022-08-03T11:59:35.085Z,3.53
2022-08-03T12:02:09.043Z,3.10
2022-08-03T12:05:00.207Z,2.90
2022-08-03T12:08:03.378Z,3.50
2022-08-03T12:10:15.650Z,2.90
2022-08-03T12:12:46.267Z,3.30
2022-08-03T12:15:13.193Z,3.17
2022-08-03T12:17:41.570Z,3.70
2022-08-03T12:20:10.059Z,2.63
2022-08-03T12:22:38.583Z,3.30
2022-08-03T12:25:06.345Z,3.90
2022-08-03T12:27:33.174Z,3.93
2022-08-03T12:30:01.505Z,3.23
2022-08-03T12:32:29.103Z,3.37
2022-08-03T12:35:01.627Z,3.27
2022-08-03T12:37:29.407Z,3.40
2022-08-03T12:40:07.747Z,2.70
2022-08-03T12:42:38.547Z,3.00
2022-08-03T12:45:25.565Z,3.03
2022-08-03T12:48:00.384Z,3.10
2022-08-03T12:50:29.382Z,2.93
2022-08-03T12:52:57.596Z,3.47
2022-08-03T12:55:24.667Z,3.10
2022-08-03T12:57:51.351Z,3.07
2022-08-03T13:00:28.933Z,3.33
2022-08-03T13:03:39.363Z,2.97
2022-08-03T13:05:55.213Z,3.40
2022-08-03T13:08:23.007Z,3.03
2022-08-03T13:10:49.845Z,2.97
2022-08-03T13:13:16.656Z,3.87
2022-08-03T13:15:48.123Z,3.20
2022-08-03T13:18:17.364Z,3.13
2022-08-03T13:20:44.258Z,3.10
2022-08-03T13:23:10.780Z,3.03
2022-08-03T13:25:55.546Z,2.90
2022-08-03T13:28:22.874Z,3.13
2022-08-03T13:30:49.444Z,2.77
2022-08-03T13:33:16.069Z,2.90
2022-08-03T13:35:42.539Z,3.17
2022-08-03T13:38:09.127Z,3.30
2022-08-03T13:40:41.428Z,3.33
2022-08-03T13:43:08.537Z,2.63
2022-08-03T13:45:35.200Z,2.87
2022-08-03T13:48:01.783Z,3.27
2022-08-03T13:50:28.340Z,3.00
2022-08-03T13:52:54.842Z,2.93
2022-08-03T13:55:21.333Z,3.23
2022-08-03T13:58:11.456Z,2.77
2022-08-03T14:00:34.588Z,2.40
2022-08-03T14:03:09.054Z,2.70
2022-08-03T14:05:39.186Z,2.90
2022-08-03T14:08:06.898Z,2.53
2022-08-03T14:10:35.410Z,2.33
2022-08-03T14:13:02.077Z,2.67
2022-08-03T14:15:28.820Z,3.30
2022-08-03T14:17:56.352Z,3.07
2022-08-03T14:20:38.745Z,2.03
2022-08-03T14:23:12.736Z,2.90
2022-08-03T14:25:43.060Z,2.40
2022-08-03T14:28:16.394Z,2.70
2022-08-03T14:30:42.974Z,3.00
2022-08-03T14:33:09.458Z,2.67
2022-08-03T14:35:36.040Z,2.43
2022-08-03T14:38:02.497Z,2.20
2022-08-03T14:40:29.006Z,2.97
2022-08-03T14:42:55.531Z,2.97
2022-08-03T14:45:22.100Z,2.27
2022-08-03T14:50:28.892Z,2.60
2022-08-03T14:50:43.174Z,2.50
2022-08-03T14:53:12.431Z,2.80
2022-08-03T14:55:50.941Z,2.47
2022-08-03T14:58:25.280Z,2.50
2022-08-03T15:00:53.210Z,2.77
2022-08-03T15:03:23.557Z,2.73
2022-08-03T15:05:51.923Z,2.53
2022-08-03T15:08:19.519Z,2.97
2022-08-03T15:10:46.169Z,2.70
2022-08-03T15:13:16.563Z,2.60
2022-08-03T15:15:43.462Z,2.50
2022-08-03T15:18:09.962Z,2.90
2022-08-03T15:20:45.905Z,2.50
2022-08-03T15:23:14.037Z,2.50
2022-08-03T15:26:32.049Z,2.23
2022-08-03T15:28:27.163Z,2.40
2022-08-03T15:30:53.749Z,2.83
2022-08-03T15:33:20.459Z,2.60
2022-08-03T15:35:47.782Z,2.40
2022-08-03T15:38:14.688Z,2.50
2022-08-03T15:40:41.655Z,2.33
2022-08-03T15:43:08.607Z,2.30
2022-08-03T15:45:36.264Z,2.43
2022-08-03T15:48:04.899Z,2.50
2022-08-03T15:50:31.426Z,2.70
2022-08-03T15:52:57.920Z,2.63
2022-08-03T15:55:24.531Z,2.40
2022-08-03T15:59:09.105Z,2.43
2022-08-03T16:00:37.842Z,2.70
2022-08-03T16:03:04.692Z,2.50
2022-08-03T16:05:31.397Z,2.70
2022-08-03T16:07:58.618Z,2.93
2022-08-03T16:10:30.905Z,2.73
2022-08-03T16:12:58.962Z,2.50
2022-08-03T16:15:25.662Z,2.37
2022-08-03T16:17:52.271Z,2.60
2022-08-03T16:20:30.896Z,2.30
2022-08-03T16:23:05.524Z,2.87
2022-08-03T16:25:38.461Z,2.60
2022-08-03T16:28:07.746Z,3.10
2022-08-03T16:30:40.454Z,2.90
2022-08-03T16:33:07.035Z,2.50
2022-08-03T16:35:33.630Z,2.20
2022-08-03T16:38:00.110Z,2.37
2022-08-03T16:40:26.793Z,2.93
2022-08-03T16:42:53.600Z,2.80
2022-08-03T16:45:20.143Z,3.07
2022-08-03T16:47:46.713Z,2.50
2022-08-03T16:50:19.729Z,2.93
2022-08-03T16:52:48.309Z,2.73
2022-08-03T16:55:18.363Z,2.50
2022-08-03T16:58:03.243Z,3.07
2022-08-03T17:00:32.806Z,2.83
2022-08-03T17:03:04.299Z,2.77
2022-08-03T17:05:47.229Z,2.73
2022-08-03T17:08:15.454Z,2.73
2022-08-03T17:10:44.548Z,2.97
2022-08-03T17:13:39.759Z,2.73
2022-08-03T17:16:03.671Z,3.27
2022-08-03T17:18:47.455Z,2.60
2022-08-03T17:21:15.592Z,2.57
2022-08-03T17:23:58.464Z,2.90
2022-08-03T17:26:30.307Z,2.83
2022-08-03T17:29:11.479Z,3.00
2022-08-03T17:31:48.994Z,3.07
2022-08-03T17:34:17.329Z,2.50
2022-08-03T17:39:55.640Z,2.20
2022-08-03T17:42:30.769Z,2.53
2022-08-03T17:45:02.065Z,2.10
2022-08-03T17:50:24.085Z,2.50
2022-08-03T17:52:58.956Z,2.10
2022-08-03T17:55:54.750Z,2.10
2022-08-03T17:58:24.137Z,2.60
2022-08-03T18:02:03.282Z,2.50
2022-08-03T18:04:02.786Z,2.27
2022-08-03T18:06:39.023Z,2.50
2022-08-03T18:12:16.109Z,2.57
2022-08-03T18:17:55.552Z,2.40
2022-08-03T18:20:32.842Z,2.90
2022-08-03T18:23:09.455Z,2.27
2022-08-03T18:25:44.977Z,2.40
2022-08-03T18:28:27.497Z,2.50
2022-08-03T18:30:56.561Z,2.87
2022-08-03T18:34:18.525Z,3.07
2022-08-03T18:36:21.692Z,2.40
2022-08-03T18:38:56.247Z,3.23
2022-08-03T18:41:32.200Z,3.20
2022-08-03T18:44:06.425Z,2.73
2022-08-03T18:46:49.426Z,2.70
2022-08-03T18:49:38.050Z,2.90
2022-08-03T18:52:18.019Z,2.97
2022-08-03T18:55:20.515Z,3.13
2022-08-03T18:58:17.515Z,2.70
2022-08-03T19:01:57.459Z,3.03
2022-08-03T19:03:58.209Z,3.00
2022-08-03T19:06:27.422Z,3.00
2022-08-03T19:09:07.426Z,3.03
2022-08-03T19:12:13.154Z,3.20
2022-08-03T19:14:42.476Z,2.70
2022-08-03T19:17:11.497Z,2.43
2022-08-03T19:19:44.924Z,2.83
2022-08-03T19:22:16.295Z,3.27
2022-08-03T19:24:45.503Z,3.53
2022-08-03T19:27:12.348Z,3.60
2022-08-03T19:29:59.641Z,3.97
2022-08-03T19:32:30.206Z,3.70
2022-08-03T19:34:59.571Z,4.67
2022-08-03T19:37:37.999Z,4.60
2022-08-03T19:40:10.829Z,4.63
2022-08-03T19:42:41.377Z,4.90
2022-08-03T19:45:14.025Z,4.80
2022-08-03T19:48:10.114Z,4.90
2022-08-03T19:50:37.853Z,5.43
2022-08-03T19:53:12.628Z,5.50
2022-08-03T19:55:49.148Z,6.10
2022-08-03T19:58:17.545Z,6.03
2022-08-03T20:00:51.434Z,6.37
2022-08-03T20:03:21.893Z,7.30
2022-08-03T20:05:52.230Z,7.00
2022-08-03T20:08:21.100Z,7.30
2022-08-03T20:10:49.337Z,7.00
2022-08-03T20:13:19.335Z,7.33
2022-08-03T20:15:46.335Z,6.90
2022-08-03T20:18:16.927Z,7.37
2022-08-03T20:20:46.294Z,7.27
2022-08-03T20:23:19.679Z,6.23
2022-08-03T20:25:57.321Z,7.27
2022-08-03T20:28:35.574Z,7.97
2022-08-03T20:31:18.561Z,8.27
2022-08-03T20:33:48.369Z,8.33
2022-08-03T20:36:17.912Z,8.30
2022-08-03T20:38:47.375Z,8.07
2022-08-03T20:41:32.603Z,8.63
2022-08-03T20:44:00.869Z,8.00
2022-08-03T20:46:35.349Z,8.07
2022-08-03T20:49:06.472Z,8.03
2022-08-03T20:51:52.328Z,8.20
2022-08-03T20:54:28.908Z,8.30
2022-08-03T20:56:58.334Z,8.63
2022-08-03T20:59:34.830Z,8.40
2022-08-03T21:02:14.127Z,8.23
2022-08-03T21:04:47.433Z,7.70
2022-08-03T21:07:24.083Z,8.27
2022-08-03T21:09:55.379Z,7.40
2022-08-03T21:12:29.442Z,7.37
2022-08-03T21:12:57.104Z,2.17
2022-08-03T21:13:04.350Z,2.27
2022-08-03T21:13:05.225Z,2.00
2022-08-03T21:15:02.415Z,8.17
2022-08-03T21:17:40.350Z,8.37
2022-08-03T21:20:10.298Z,8.37
2022-08-03T21:22:38.200Z,7.33
2022-08-03T21:25:08.514Z,7.30
2022-08-03T21:27:36.545Z,7.13
2022-08-03T21:30:07.053Z,7.13
2022-08-03T21:32:33.631Z,8.17
2022-08-03T21:35:00.535Z,7.63
2022-08-03T21:37:27.912Z,7.30
2022-08-03T21:39:55.633Z,7.23
2022-08-03T21:42:26.189Z,8.30
2022-08-03T21:44:53.664Z,7.57
2022-08-03T21:47:24.631Z,8.10
2022-08-03T21:50:08.811Z,8.57
2022-08-03T21:52:45.218Z,8.87
2022-08-03T21:55:18.490Z,7.33
2022-08-03T21:57:51.622Z,8.43
2022-08-03T22:00:19.430Z,8.20
2022-08-03T22:02:51.667Z,7.00
2022-08-03T22:05:42.549Z,7.17
2022-08-03T22:08:09.562Z,8.37
2022-08-03T22:10:36.237Z,8.77
2022-08-03T22:13:02.848Z,7.43
2022-08-03T22:15:29.967Z,6.77
2022-08-03T22:17:57.469Z,7.07
2022-08-03T22:20:24.872Z,7.07
2022-08-03T22:22:56.659Z,7.20
2022-08-03T22:25:29.953Z,6.47
2022-08-03T22:27:58.865Z,6.87
2022-08-03T22:30:25.490Z,8.33
2022-08-03T22:32:53.940Z,8.23
2022-08-03T22:35:20.975Z,9.30
2022-08-03T22:37:49.883Z,8.13
2022-08-03T22:40:16.736Z,8.20
2022-08-03T22:42:45.950Z,8.03
2022-08-03T22:46:07.035Z,8.87
2022-08-03T22:47:59.857Z,8.73
2022-08-03T22:50:31.692Z,8.90
2022-08-03T22:52:59.533Z,8.50
2022-08-03T22:55:27.318Z,8.63
2022-08-03T22:57:55.599Z,9.30
2022-08-03T23:00:22.446Z,8.57
2022-08-03T23:02:49.541Z,9.17
2022-08-03T23:06:01.378Z,8.40
2022-08-03T23:08:11.169Z,8.60
2022-08-03T23:10:37.988Z,8.60
2022-08-03T23:13:05.114Z,9.03
2022-08-03T23:15:32.867Z,9.10
2022-08-03T23:18:01.421Z,8.10
2022-08-03T23:20:29.098Z,7.87
2022-08-03T23:22:57.664Z,8.57
2022-08-03T23:25:25.254Z,7.73
2022-08-03T23:28:05.335Z,8.67
2022-08-03T23:30:34.130Z,8.63
2022-08-03T23:33:01.119Z,8.10
2022-08-03T23:36:28.960Z,7.70
2022-08-03T23:38:36.781Z,6.70
2022-08-03T23:41:04.781Z,7.57
2022-08-03T23:43:33.804Z,6.80
2022-08-03T23:46:19.772Z,6.97
2022-08-03T23:48:46.394Z,7.10
2022-08-03T23:51:37.879Z,6.90
2022-08-03T23:54:26.683Z,5.97
2022-08-03T23:56:56.051Z,6.50
2022-08-03T23:59:46.084Z,6.67
